Time;durP1;ratioP1;P1;durP2;ratioP2;P2;SDS_P1;SDS_P2;PMS_P1;PMS_P2;Temp;Humidity;BMP_temperature;BMP_pressure;BME280_temperature;BME280_humidity;BME280_pressure;Samples;Min_cycle;Max_cycle;Signal;HPM_P1;HPM_P2
2021/04/24 00:02:15;;;;;;;6.47;3.73;;;;;;;3.52;70.46;101606.44;5116587;27;20203;-81
2021/04/24 00:04:42;;;;;;;4.10;3.27;;;;;;;3.44;70.60;101607.94;5117176;27;20208;-81
2021/04/24 00:07:08;;;;;;;4.80;3.10;;;;;;;3.41;70.39;101602.66;5115084;27;20712;-81
2021/04/24 00:09:34;;;;;;;5.20;3.10;;;;;;;3.35;71.55;101604.25;5116857;28;20199;-80
2021/04/24 00:12:01;;;;;;;6.97;3.40;;;;;;;3.32;71.72;101600.69;5117203;28;20200;-80
2021/04/24 00:14:27;;;;;;;12.60;3.73;;;;;;;3.22;72.08;101602.13;5115089;27;20301;-78
2021/04/24 00:16:53;;;;;;;6.30;3.60;;;;;;;3.17;72.47;101595.94;5116416;27;20247;-80
2021/04/24 00:19:19;;;;;;;4.17;3.07;;;;;;;3.07;72.80;101606.81;5114979;28;20203;-80
2021/04/24 00:21:46;;;;;;;6.07;3.60;;;;;;;3.05;73.14;101599.03;5115096;28;20623;-79
2021/04/24 00:24:12;;;;;;;4.00;3.23;;;;;;;3.13;72.91;101600.16;5114654;27;20204;-79
2021/04/24 00:26:38;;;;;;;4.30;3.30;;;;;;;3.10;73.07;101597.47;5117989;27;20242;-79
2021/04/24 00:29:04;;;;;;;5.70;3.17;;;;;;;3.15;73.12;101603.66;5115281;28;20657;-80
2021/04/24 00:31:30;;;;;;;4.90;3.87;;;;;;;3.15;72.77;101603.66;5113570;27;20212;-80
2021/04/24 00:33:56;;;;;;;7.13;3.50;;;;;;;3.04;72.96;101601.59;5115266;28;20215;-79
2021/04/24 00:36:22;;;;;;;5.80;3.67;;;;;;;3.11;72.32;101600.91;5115532;27;20700;-79
2021/04/24 00:38:49;;;;;;;5.77;3.60;;;;;;;3.00;73.35;101594.59;5114513;27;20212;-79
2021/04/24 00:41:15;;;;;;;5.67;3.20;;;;;;;2.99;73.25;101593.69;5115210;28;20203;-80
2021/04/24 00:43:41;;;;;;;5.80;3.30;;;;;;;2.89;73.78;101589.94;5115778;28;20211;-79
2021/04/24 00:46:08;;;;;;;6.50;3.43;;;;;;;2.90;73.58;101596.88;5114172;27;20219;-79
2021/04/24 00:48:35;;;;;;;6.70;3.27;;;;;;;2.94;74.47;101603.88;5114081;28;20298;-80
2021/04/24 00:51:01;;;;;;;5.27;3.60;;;;;;;2.92;74.62;101600.38;5113131;28;20309;-80
2021/04/24 00:53:27;;;;;;;5.83;3.73;;;;;;;2.85;75.08;101598.41;5113098;28;20248;-79
2021/04/24 00:55:53;;;;;;;7.33;4.00;;;;;;;2.84;75.16;101594.09;5112824;27;20319;-81
2021/04/24 00:58:20;;;;;;;10.30;3.77;;;;;;;2.75;75.01;101597.25;5113492;28;20215;-79
2021/04/24 01:00:45;;;;;;;5.70;3.80;;;;;;;2.80;75.67;101596.53;5114200;28;20207;-82
2021/04/24 01:03:11;;;;;;;6.43;4.23;;;;;;;2.73;75.80;101595.47;5112953;28;20199;-81
2021/04/24 01:05:40;;;;;;;6.20;3.77;;;;;;;2.75;76.35;101591.22;5113978;27;21109;-83
2021/04/24 01:08:08;;;;;;;9.17;4.57;;;;;;;2.67;76.57;101595.25;5113043;28;20205;-79
2021/04/24 01:10:36;;;;;;;5.83;3.73;;;;;;;2.68;76.21;101594.44;5112653;28;20205;-79
2021/04/24 01:13:03;;;;;;;7.07;4.13;;;;;;;2.73;76.69;101591.16;5112425;28;20203;-79
2021/04/24 01:15:30;;;;;;;5.00;4.00;;;;;;;2.74;76.57;101600.66;5111995;27;20211;-79
2021/04/24 01:17:56;;;;;;;7.73;4.20;;;;;;;2.76;76.48;101595.56;5112076;28;20727;-79
2021/04/24 01:20:22;;;;;;;8.97;4.90;;;;;;;2.69;77.14;101593.59;5112700;28;20635;-79
2021/04/24 01:22:50;;;;;;;7.47;4.20;;;;;;;2.72;77.18;101599.75;5111200;28;20204;-83
2021/04/24 01:25:22;;;;;;;7.13;4.57;;;;;;;2.73;76.79;101598.03;5112536;27;20650;-79
2021/04/24 01:27:49;;;;;;;6.53;4.33;;;;;;;2.75;77.36;101599.81;5111864;28;20272;-79
2021/04/24 01:30:19;;;;;;;6.90;4.83;;;;;;;2.74;77.92;101602.38;5111997;28;20207;-81
2021/04/24 01:32:44;;;;;;;6.60;5.03;;;;;;;2.75;77.33;101601.53;5111302;28;20254;-80
2021/04/24 01:35:13;;;;;;;6.63;4.93;;;;;;;2.74;77.93;101598.09;5112653;28;20207;-79
2021/04/24 01:37:39;;;;;;;8.33;5.03;;;;;;;2.62;77.70;101595.13;5111358;28;20250;-79
2021/04/24 01:40:09;;;;;;;9.33;5.43;;;;;;;2.58;78.27;101591.56;5112667;28;20199;-79
2021/04/24 01:42:35;;;;;;;5.57;4.47;;;;;;;2.61;78.28;101598.50;5111576;28;20208;-83
2021/04/24 01:45:01;;;;;;;7.47;4.80;;;;;;;2.66;78.49;101594.41;5112260;28;20203;-81
2021/04/24 01:47:27;;;;;;;7.47;4.90;;;;;;;2.64;79.43;101592.59;5111662;27;20732;-80
2021/04/24 01:49:53;;;;;;;9.20;5.33;;;;;;;2.77;78.26;101592.16;5111840;28;20226;-81
2021/04/24 01:52:19;;;;;;;6.97;5.40;;;;;;;2.72;79.40;101592.00;5111978;28;20297;-81
2021/04/24 01:54:45;;;;;;;11.07;5.37;;;;;;;2.69;79.08;101584.16;5112357;28;20252;-79
2021/04/24 01:57:11;;;;;;;9.10;4.93;;;;;;;2.70;78.88;101582.50;5111666;28;20223;-80
2021/04/24 01:59:37;;;;;;;11.23;5.70;;;;;;;2.70;79.10;101585.94;5112654;28;20251;-80
2021/04/24 02:02:04;;;;;;;9.37;4.87;;;;;;;2.66;79.56;101585.78;5112601;28;20233;-80
2021/04/24 02:04:30;;;;;;;7.33;5.73;;;;;;;2.66;78.86;101584.09;5112650;28;20604;-80
2021/04/24 02:06:56;;;;;;;6.27;4.93;;;;;;;2.59;79.84;101585.56;5111788;28;20223;-82
2021/04/24 02:09:23;;;;;;;11.53;5.47;;;;;;;2.62;80.19;101578.75;5112258;28;20204;-81
2021/04/24 02:12:08;;;;;;;9.73;5.73;;;;;;;2.62;79.62;101579.66;5111187;28;20673;-79
2021/04/24 02:14:41;;;;;;;10.33;5.53;;;;;;;2.55;79.91;101576.00;5112957;28;20303;-80
2021/04/24 02:17:08;;;;;;;8.40;5.90;;;;;;;2.52;80.06;101577.63;5112593;28;20301;-79
2021/04/24 02:19:37;;;;;;;11.30;5.40;;;;;;;2.47;80.36;101563.69;5116312;28;20223;-78
2021/04/24 02:22:04;;;;;;;7.03;5.63;;;;;;;2.47;80.39;101568.84;5113574;28;20204;-78
2021/04/24 02:24:38;;;;;;;11.60;5.77;;;;;;;2.43;80.52;101569.59;5115542;28;20701;-80
2021/04/24 02:27:06;;;;;;;8.70;5.60;;;;;;;2.41;81.48;101573.81;5113116;28;20814;-79
2021/04/24 02:29:32;;;;;;;7.17;6.17;;;;;;;2.49;80.82;101580.09;5113636;28;20200;-80
2021/04/24 02:31:59;;;;;;;14.43;6.67;;;;;;;2.44;81.29;101579.03;5115068;28;20229;-79
2021/04/24 02:34:24;;;;;;;9.80;6.03;;;;;;;2.42;81.68;101578.13;5116375;28;20207;-79
2021/04/24 02:36:50;;;;;;;8.77;5.70;;;;;;;2.38;81.80;101575.47;5116828;27;20227;-79
2021/04/24 02:39:16;;;;;;;9.53;5.97;;;;;;;2.42;82.04;101572.97;5116224;28;20299;-79
2021/04/24 02:41:43;;;;;;;11.13;6.40;;;;;;;2.45;81.40;101573.94;5116234;28;20239;-81
2021/04/24 02:44:09;;;;;;;9.40;5.83;;;;;;;2.46;81.77;101565.41;5117221;27;20203;-79
2021/04/24 02:46:34;;;;;;;8.87;6.23;;;;;;;2.46;82.23;101561.94;5116670;28;20283;-83
2021/04/24 02:49:03;;;;;;;9.13;5.40;;;;;;;2.51;81.83;101568.13;5116093;28;20605;-80
2021/04/24 02:51:29;;;;;;;10.03;5.93;;;;;;;2.51;80.76;101571.56;5116183;27;20215;-80
2021/04/24 02:53:55;;;;;;;9.17;6.13;;;;;;;2.50;80.48;101568.97;5115674;27;20692;-81
2021/04/24 02:56:21;;;;;;;9.90;6.33;;;;;;;2.54;81.64;101576.84;5116195;27;20275;-81
2021/04/24 02:58:47;;;;;;;9.30;6.10;;;;;;;2.55;80.84;101569.97;5115730;28;20629;-80
2021/04/24 03:01:13;;;;;;;7.33;5.47;;;;;;;2.62;80.54;101573.59;5115427;27;20213;-80
2021/04/24 03:03:39;;;;;;;8.10;5.60;;;;;;;2.54;81.00;101565.66;5115426;28;20203;-81
2021/04/24 03:06:06;;;;;;;10.07;6.20;;;;;;;2.54;81.39;101569.09;5115711;27;20274;-81
2021/04/24 03:08:32;;;;;;;10.90;6.33;;;;;;;2.53;80.94;101561.31;5115537;28;20211;-80
2021/04/24 03:10:58;;;;;;;8.47;6.27;;;;;;;2.55;81.20;101570.84;5115786;27;21732;-80
2021/04/24 03:13:23;;;;;;;7.43;5.57;;;;;;;2.62;80.73;101571.94;5115210;28;20199;-80
2021/04/24 03:15:49;;;;;;;10.50;7.10;;;;;;;2.61;81.00;101571.88;5116095;27;20786;-81
2021/04/24 03:18:15;;;;;;;8.40;6.07;;;;;;;2.56;81.58;101574.31;5115125;28;20282;-81
2021/04/24 03:20:41;;;;;;;9.00;6.57;;;;;;;2.56;81.41;101572.59;5115767;27;20248;-77
2021/04/24 03:23:09;;;;;;;10.93;7.37;;;;;;;2.55;81.43;101572.56;5115666;28;20207;-79
2021/04/24 03:25:35;;;;;;;8.17;6.30;;;;;;;2.48;80.91;101575.75;5118567;27;20207;-79
2021/04/24 03:28:01;;;;;;;7.23;6.23;;;;;;;2.54;80.92;101568.22;5117329;28;20268;-79
2021/04/24 03:30:28;;;;;;;9.20;6.57;;;;;;;2.57;81.57;101573.47;5118641;27;20590;-79
2021/04/24 03:32:54;;;;;;;9.80;6.83;;;;;;;2.67;81.49;101574.63;5118079;27;20697;-81
2021/04/24 03:35:20;;;;;;;10.43;7.17;;;;;;;2.75;81.24;101574.03;5118379;27;20199;-79
2021/04/24 03:37:45;;;;;;;14.47;7.80;;;;;;;2.73;81.13;101569.69;5116778;27;20273;-79
2021/04/24 03:40:13;;;;;;;10.57;7.03;;;;;;;2.72;81.40;101571.38;5118870;27;20248;-79
2021/04/24 03:42:39;;;;;;;11.20;7.27;;;;;;;2.76;81.71;101570.66;5116850;28;20210;-80
2021/04/24 03:45:17;;;;;;;10.13;6.80;;;;;;;2.80;81.26;101573.34;5117551;28;20221;-80
2021/04/24 03:47:43;;;;;;;8.97;6.90;;;;;;;2.92;81.16;101582.31;5116148;28;20223;-80
2021/04/24 03:50:11;;;;;;;13.77;7.57;;;;;;;2.92;80.89;101587.47;5117746;28;20207;-79
2021/04/24 03:52:37;;;;;;;8.20;7.40;;;;;;;2.89;80.42;101578.75;5116916;28;20672;-81
2021/04/24 03:55:03;;;;;;;10.90;7.60;;;;;;;2.81;81.46;101581.09;5118139;28;20234;-78
2021/04/24 03:57:30;;;;;;;11.83;6.97;;;;;;;2.83;81.66;101586.31;5117765;28;20478;-80
2021/04/24 03:59:57;;;;;;;13.47;7.47;;;;;;;2.87;82.25;101577.84;5118688;27;20199;-79
2021/04/24 04:02:23;;;;;;;10.90;7.63;;;;;;;2.85;82.03;101587.22;5117297;28;20210;-78
2021/04/24 04:04:49;;;;;;;15.40;7.30;;;;;;;2.88;81.50;101583.06;5117583;27;20207;-80
2021/04/24 04:07:15;;;;;;;10.97;7.97;;;;;;;3.04;81.43;101589.56;5117760;28;20260;-80
2021/04/24 04:09:41;;;;;;;9.03;7.03;;;;;;;3.02;81.56;101583.47;5118240;28;20271;-80
2021/04/24 04:12:07;;;;;;;9.63;7.53;;;;;;;2.93;81.61;101594.41;5116648;28;20855;-79
2021/04/24 04:14:34;;;;;;;13.77;7.60;;;;;;;3.01;81.71;101591.16;5114911;28;20738;-79
2021/04/24 04:17:00;;;;;;;11.17;7.87;;;;;;;3.03;82.47;101592.94;5113919;27;20235;-79
2021/04/24 04:19:26;;;;;;;10.63;7.37;;;;;;;2.99;82.79;101598.84;5115067;28;20200;-78
2021/04/24 04:21:52;;;;;;;10.43;7.93;;;;;;;3.02;82.87;101591.22;5115253;28;20214;-79
2021/04/24 04:24:18;;;;;;;17.00;7.63;;;;;;;3.09;81.57;101589.69;5115329;28;20207;-79
2021/04/24 04:26:44;;;;;;;12.43;7.10;;;;;;;3.10;82.54;101588.88;5114906;28;20705;-79
2021/04/24 04:29:10;;;;;;;11.70;8.40;;;;;;;3.10;82.51;101588.88;5116399;27;20288;-80
2021/04/24 04:31:37;;;;;;;10.67;7.13;;;;;;;3.09;83.00;101590.59;5116075;27;20233;-81
2021/04/24 04:34:04;;;;;;;9.10;7.00;;;;;;;3.11;82.66;101588.94;5115426;27;20673;-81
2021/04/24 04:36:30;;;;;;;8.33;6.87;;;;;;;3.12;83.30;101593.22;5114922;27;20235;-80
2021/04/24 04:38:56;;;;;;;10.53;6.83;;;;;;;3.10;83.03;101594.91;5114654;28;20212;-80
2021/04/24 04:41:22;;;;;;;8.77;7.37;;;;;;;3.08;83.34;101591.41;5114119;28;20231;-81
2021/04/24 04:43:48;;;;;;;16.17;7.83;;;;;;;3.09;83.73;101595.75;5117320;28;20313;-80
2021/04/24 04:46:14;;;;;;;14.40;7.77;;;;;;;3.09;83.89;101602.56;5120562;27;20776;-80
2021/04/24 04:48:40;;;;;;;13.07;8.07;;;;;;;3.09;84.71;101597.41;5121251;28;20688;-80
2021/04/24 04:51:06;;;;;;;11.03;6.93;;;;;;;3.11;84.60;101594.09;5120598;27;20572;-80
2021/04/24 04:53:32;;;;;;;10.50;7.73;;;;;;;3.13;84.14;101599.25;5120991;28;20208;-80
2021/04/24 04:55:58;;;;;;;11.30;8.03;;;;;;;3.20;84.67;101606.38;5122869;27;20319;-81
2021/04/24 04:58:25;;;;;;;14.83;8.70;;;;;;;3.15;85.04;101597.59;5116092;28;20294;-82
2021/04/24 05:00:51;;;;;;;9.47;8.47;;;;;;;3.18;85.21;101596.00;5116849;27;20203;-81
2021/04/24 05:03:17;;;;;;;23.73;17.50;;;;;;;3.21;85.29;101590.06;5116023;28;20256;-81
2021/04/24 05:05:44;;;;;;;44.97;25.53;;;;;;;3.21;85.49;101590.06;5116768;27;20239;-82
2021/04/24 05:08:10;;;;;;;17.23;10.00;;;;;;;3.21;84.92;101584.00;5116343;27;20249;-81
2021/04/24 05:10:36;;;;;;;13.50;9.13;;;;;;;3.21;85.32;101579.75;5115361;27;20742;-81
2021/04/24 05:13:02;;;;;;;11.00;9.40;;;;;;;3.25;85.46;101591.91;5114964;28;20614;-81
2021/04/24 05:15:27;;;;;;;11.43;10.27;;;;;;;3.29;85.46;101596.34;5115143;28;20680;-81
2021/04/24 05:17:53;;;;;;;12.33;9.13;;;;;;;3.31;85.23;101586.94;5118086;28;20231;-81
2021/04/24 05:20:19;;;;;;;13.80;9.40;;;;;;;3.34;85.20;101589.59;5112977;28;20203;-81
2021/04/24 05:22:47;;;;;;;11.90;8.30;;;;;;;3.39;85.12;101594.91;5111421;28;20665;-81
2021/04/24 05:25:15;;;;;;;13.87;9.00;;;;;;;3.47;85.16;101589.94;5112823;27;20207;-79
2021/04/24 05:27:44;;;;;;;11.43;8.77;;;;;;;3.62;84.88;101581.75;5111736;28;20360;-78
2021/04/24 05:30:10;;;;;;;13.27;8.80;;;;;;;3.67;83.86;101580.19;5114301;27;20222;-79
2021/04/24 05:32:36;;;;;;;10.03;8.60;;;;;;;3.61;83.78;101586.06;5111782;28;20703;-84
2021/04/24 05:35:03;;;;;;;16.80;8.27;;;;;;;3.63;83.82;101588.66;5113824;27;20204;-82
2021/04/24 05:37:29;;;;;;;11.67;8.40;;;;;;;3.73;84.21;101585.53;5113300;28;20227;-82
2021/04/24 05:39:56;;;;;;;17.83;9.93;;;;;;;3.75;84.04;101589.03;5113091;27;20252;-81
2021/04/24 05:42:22;;;;;;;9.63;8.63;;;;;;;3.77;84.37;101585.63;5114003;27;20280;-80
2021/04/24 05:44:48;;;;;;;12.63;7.50;;;;;;;3.88;84.89;101590.22;5114324;28;20203;-81
2021/04/24 05:47:14;;;;;;;12.00;8.60;;;;;;;3.91;84.33;101593.75;5112659;28;20219;-79
2021/04/24 05:49:40;;;;;;;14.67;8.17;;;;;;;3.96;84.35;101594.78;5114082;28;20919;-80
2021/04/24 05:52:06;;;;;;;10.60;8.93;;;;;;;4.02;84.73;101588.00;5113779;28;20572;-80
2021/04/24 05:54:33;;;;;;;14.57;8.13;;;;;;;4.10;84.55;101592.56;5113505;28;20203;-80
2021/04/24 05:57:00;;;;;;;14.40;9.20;;;;;;;4.06;85.08;101588.13;5113060;28;20238;-81
2021/04/24 05:59:26;;;;;;;10.23;8.93;;;;;;;4.23;84.75;101587.69;5113158;28;20692;-81
2021/04/24 06:01:52;;;;;;;10.13;8.93;;;;;;;4.34;84.76;101583.66;5113138;28;20207;-81
2021/04/24 06:04:18;;;;;;;11.27;8.20;;;;;;;4.43;84.00;101591.66;5112601;28;20242;-79
2021/04/24 06:06:44;;;;;;;11.83;7.60;;;;;;;4.43;83.31;101593.38;5112403;28;20249;-79
2021/04/24 06:09:10;;;;;;;10.80;8.33;;;;;;;4.51;83.73;101584.94;5113052;28;20240;-79
2021/04/24 06:11:36;;;;;;;9.97;7.93;;;;;;;4.60;83.14;101586.91;5115155;28;20203;-79
2021/04/24 06:14:03;;;;;;;8.73;7.30;;;;;;;4.66;83.22;101584.47;5112682;28;20229;-79
2021/04/24 06:16:30;;;;;;;11.43;8.97;;;;;;;4.69;82.59;101588.81;5112594;28;20231;-79
2021/04/24 06:18:56;;;;;;;9.40;7.60;;;;;;;4.83;81.71;101589.16;5113627;28;20249;-79
2021/04/24 06:21:22;;;;;;;14.87;8.53;;;;;;;4.95;81.44;101584.25;5111489;28;20212;-83
2021/04/24 06:23:48;;;;;;;11.30;8.63;;;;;;;5.01;81.64;101586.09;5112788;28;20225;-79
2021/04/24 06:26:14;;;;;;;11.53;7.37;;;;;;;5.10;81.42;101588.91;5115027;28;20224;-80
2021/04/24 06:28:40;;;;;;;9.67;6.53;;;;;;;5.18;80.22;101584.75;5119715;28;20253;-80
2021/04/24 06:31:07;;;;;;;10.87;6.63;;;;;;;5.14;80.27;101588.13;5118284;28;20211;-80
2021/04/24 06:33:33;;;;;;;13.50;8.37;;;;;;;5.27;80.61;101581.50;5116785;28;20211;-79
2021/04/24 06:35:59;;;;;;;10.80;6.47;;;;;;;5.36;79.55;101585.16;5113816;28;20909;-79
2021/04/24 06:38:25;;;;;;;12.30;7.50;;;;;;;5.49;78.90;101581.13;5118181;28;20223;-80
2021/04/24 06:40:51;;;;;;;12.27;6.47;;;;;;;5.54;78.30;101578.59;5117127;28;20224;-79
2021/04/24 06:43:17;;;;;;;9.53;6.57;;;;;;;5.62;77.99;101576.16;5116103;28;20203;-79
2021/04/24 06:45:43;;;;;;;15.83;6.43;;;;;;;5.80;77.43;101580.84;5116761;28;20885;-79
2021/04/24 06:48:10;;;;;;;11.63;6.97;;;;;;;5.94;76.77;101569.88;5117258;28;20568;-79
2021/04/24 06:50:36;;;;;;;52.07;10.57;;;;;;;5.94;76.38;101572.47;5119225;28;20215;-80
2021/04/24 06:53:03;;;;;;;13.53;7.03;;;;;;;6.06;76.22;101573.56;5117416;28;20211;-80
2021/04/24 06:55:29;;;;;;;17.23;6.80;;;;;;;6.12;75.47;101571.06;5119199;28;20218;-79
2021/04/24 06:57:55;;;;;;;11.57;5.67;;;;;;;6.15;75.09;101577.19;5116837;28;20221;-80
2021/04/24 07:00:22;;;;;;;7.10;5.70;;;;;;;6.12;75.47;101573.66;5117169;28;20606;-80
2021/04/24 07:02:49;;;;;;;12.43;5.57;;;;;;;6.15;75.07;101577.19;5116797;28;20215;-79
2021/04/24 07:05:16;;;;;;;5.67;5.17;;;;;;;6.34;74.14;101575.81;5116491;28;20204;-79
2021/04/24 07:07:42;;;;;;;6.73;5.03;;;;;;;6.48;73.14;101583.81;5112032;28;20235;-80
2021/04/24 07:10:10;;;;;;;6.27;4.50;;;;;;;6.55;72.79;101587.38;5117925;28;20199;-81
2021/04/24 07:12:37;;;;;;;7.70;4.57;;;;;;;6.64;72.78;101577.16;5116742;28;20225;-79
2021/04/24 07:15:03;;;;;;;5.87;4.30;;;;;;;6.50;71.43;101584.72;5118231;28;20217;-81
2021/04/24 07:17:29;;;;;;;4.57;3.73;;;;;;;6.59;71.43;101583.97;5118735;27;20235;-77
2021/04/24 07:19:55;;;;;;;5.40;4.90;;;;;;;6.60;72.24;101577.94;5113974;27;20208;-77
2021/04/24 07:22:22;;;;;;;6.83;5.00;;;;;;;6.62;72.12;101576.25;5109865;27;20210;-77
2021/04/24 07:24:48;;;;;;;5.87;4.97;;;;;;;6.53;72.19;101578.69;5110913;27;20231;-76
2021/04/24 07:27:14;;;;;;;7.37;5.33;;;;;;;6.63;72.18;101574.53;5109414;28;20713;-77
2021/04/24 07:29:41;;;;;;;4.60;4.20;;;;;;;6.73;71.28;101577.28;5110243;27;20697;-76
2021/04/24 07:32:07;;;;;;;7.63;4.83;;;;;;;6.81;70.30;101576.53;5110503;27;20223;-76
2021/04/24 07:34:33;;;;;;;8.07;5.07;;;;;;;6.97;70.39;101576.75;5111584;27;20276;-76
2021/04/24 07:36:59;;;;;;;9.07;4.67;;;;;;;7.09;70.35;101572.59;5110804;27;20232;-76
2021/04/24 07:39:26;;;;;;;5.47;4.17;;;;;;;7.21;69.91;101566.69;5112044;28;20244;-79
2021/04/24 07:41:53;;;;;;;4.87;3.40;;;;;;;7.26;68.22;101571.09;5114258;27;20256;-78
2021/04/24 07:44:19;;;;;;;5.43;4.50;;;;;;;7.18;67.39;101577.06;5115825;27;20230;-78
2021/04/24 07:46:45;;;;;;;5.70;4.77;;;;;;;6.88;68.98;101568.00;5111078;27;20224;-78
2021/04/24 07:49:11;;;;;;;4.70;4.27;;;;;;;7.07;69.42;101569.09;5114029;27;20633;-80
2021/04/24 07:51:37;;;;;;;7.00;4.67;;;;;;;6.93;68.68;101568.91;5114781;28;20221;-81
2021/04/24 07:54:03;;;;;;;7.63;4.27;;;;;;;6.86;68.66;101567.09;5113855;28;20205;-81
2021/04/24 07:56:30;;;;;;;5.53;4.47;;;;;;;6.96;68.94;101577.63;5114728;27;20260;-80
2021/04/24 07:58:56;;;;;;;7.45;5.63;;;;;;;6.98;68.29;101577.66;5114639;27;20454;-80
2021/04/24 08:01:21;;;;;;;6.43;4.40;;;;;;;7.13;67.59;101569.19;5115367;27;20237;-80
2021/04/24 08:03:47;;;;;;;6.00;3.70;;;;;;;7.38;66.05;101564.31;5112522;28;20268;-82
2021/04/24 08:06:13;;;;;;;6.97;4.30;;;;;;;7.46;66.16;101566.16;5112533;27;20223;-78
2021/04/24 08:08:39;;;;;;;5.03;4.53;;;;;;;7.45;67.22;101574.81;5107859;28;20291;-80
2021/04/24 08:11:05;;;;;;;5.17;3.93;;;;;;;7.43;67.22;101573.03;5109899;28;20626;-78
2021/04/24 08:13:32;;;;;;;4.43;3.67;;;;;;;7.31;65.81;101571.16;5110575;28;21141;-78
2021/04/24 08:15:58;;;;;;;5.10;3.03;;;;;;;7.15;64.73;101577.88;5110045;27;20224;-79
2021/04/24 08:18:24;;;;;;;3.27;2.50;;;;;;;7.41;64.63;101574.72;5108900;28;20358;-78
2021/04/24 08:20:50;;;;;;;6.77;3.57;;;;;;;7.54;64.00;101566.25;5107985;27;20296;-77
2021/04/24 08:23:16;;;;;;;4.33;3.00;;;;;;;7.81;63.64;101563.09;5110128;28;20243;-79
2021/04/24 08:25:42;;;;;;;2.93;1.67;;;;;;;7.92;59.70;101558.00;5110799;27;20691;-80
2021/04/24 08:28:08;;;;;;;3.53;2.60;;;;;;;7.78;61.17;101564.78;5109523;28;20300;-79
2021/04/24 08:30:35;;;;;;;4.60;3.37;;;;;;;7.95;62.47;101560.63;5110927;27;20231;-79
2021/04/24 08:33:02;;;;;;;4.23;3.30;;;;;;;8.19;63.27;101561.72;5109733;28;20208;-78
2021/04/24 08:35:28;;;;;;;5.03;3.07;;;;;;;8.15;61.33;101564.28;5110863;27;20242;-80
2021/04/24 08:37:54;;;;;;;4.53;3.20;;;;;;;8.24;61.69;101563.47;5109956;28;20237;-77
2021/04/24 08:40:19;;;;;;;3.90;3.50;;;;;;;7.88;61.88;101570.06;5110141;27;20286;-77
2021/04/24 08:42:48;;;;;;;6.67;4.30;;;;;;;7.81;62.87;101570.00;5109090;28;20213;-77
2021/04/24 08:45:16;;;;;;;8.10;4.23;;;;;;;7.55;62.47;101568.88;5109792;27;20199;-77
2021/04/24 08:47:45;;;;;;;4.13;3.67;;;;;;;7.65;64.01;101568.94;5109505;28;20340;-80
2021/04/24 08:50:14;;;;;;;5.10;3.90;;;;;;;7.90;62.36;101562.31;5110355;28;20564;-79
2021/04/24 08:52:41;;;;;;;4.53;3.73;;;;;;;8.10;59.72;101563.34;5109058;28;20622;-77
2021/04/24 08:55:08;;;;;;;3.70;3.40;;;;;;;8.18;60.79;101565.16;5109357;27;20746;-76
2021/04/24 08:57:36;;;;;;;5.10;4.40;;;;;;;7.96;63.57;101565.81;5108627;28;20643;-77
2021/04/24 09:00:05;;;;;;;6.33;5.67;;;;;;;7.94;63.68;101561.47;5110500;27;20215;-77
2021/04/24 09:02:31;;;;;;;7.60;5.80;;;;;;;8.11;63.66;101567.72;5108681;28;20264;-75
2021/04/24 09:04:58;;;;;;;6.73;6.10;;;;;;;8.16;63.21;101558.22;5109298;27;20207;-76
2021/04/24 09:07:24;;;;;;;5.53;5.07;;;;;;;8.25;63.80;101560.03;5108835;28;20221;-77
2021/04/24 09:09:57;;;;;;;6.87;5.27;;;;;;;8.53;62.53;101566.38;5109572;28;20205;-77
2021/04/24 09:12:34;;;;;;;5.70;4.63;;;;;;;8.49;61.35;101566.34;5108853;28;20232;-77
2021/04/24 09:15:07;;;;;;;5.83;4.37;;;;;;;8.76;61.29;101565.69;5109329;27;20565;-76
2021/04/24 09:17:52;;;;;;;6.80;4.50;;;;;;;8.97;61.25;101566.66;5108815;28;20237;-77
2021/04/24 09:20:20;;;;;;;8.47;5.10;;;;;;;8.62;62.60;101567.28;5109496;28;20209;-76
2021/04/24 09:22:59;;;;;;;5.57;4.83;;;;;;;8.82;61.71;101567.41;5108199;28;20283;-77
2021/04/24 09:25:32;;;;;;;5.80;4.87;;;;;;;8.64;59.71;101569.06;5109611;27;20213;-77
2021/04/24 09:27:58;;;;;;;5.23;4.67;;;;;;;8.87;59.78;101565.72;5109210;28;20197;-76
2021/04/24 09:30:28;;;;;;;5.83;5.23;;;;;;;8.66;61.94;101577.75;5109521;27;20201;-77
2021/04/24 09:32:55;;;;;;;6.50;5.93;;;;;;;8.24;62.57;101575.63;5108585;28;20208;-78
2021/04/24 09:35:22;;;;;;;8.23;6.07;;;;;;;8.16;63.54;101570.34;5108524;27;20207;-76
2021/04/24 09:37:56;;;;;;;7.27;6.03;;;;;;;7.88;63.03;101579.63;5108584;28;20223;-76
2021/04/24 09:40:22;;;;;;;7.67;6.87;;;;;;;7.77;64.05;101571.72;5109208;28;20211;-77
2021/04/24 09:42:48;;;;;;;6.60;6.00;;;;;;;7.65;65.11;101575.03;5108149;28;20204;-77
2021/04/24 09:45:29;;;;;;;8.00;6.40;;;;;;;7.71;65.11;101571.63;5107803;28;20606;-76
2021/04/24 09:47:56;;;;;;;6.73;5.90;;;;;;;7.82;64.33;101574.34;5108515;28;20207;-77
2021/04/24 09:50:29;;;;;;;8.10;6.63;;;;;;;7.70;64.12;101573.34;5108347;28;20211;-76
2021/04/24 09:53:14;;;;;;;11.80;7.13;;;;;;;7.55;66.09;101568.88;5108103;28;20919;-79
2021/04/24 09:55:41;;;;;;;9.47;6.93;;;;;;;7.71;65.36;101564.72;5108425;28;20256;-77
2021/04/24 09:58:24;;;;;;;6.37;5.83;;;;;;;8.08;64.03;101564.22;5107600;28;20233;-76
2021/04/24 10:00:50;;;;;;;10.23;7.53;;;;;;;8.04;64.84;101568.50;5108476;28;20199;-77
2021/04/24 10:03:35;;;;;;;8.10;7.43;;;;;;;8.32;63.35;101567.06;5107909;28;20512;-77
2021/04/24 10:06:37;;;;;;;7.63;6.83;;;;;;;8.35;62.32;101561.00;5107273;28;20247;-76
2021/04/24 10:09:13;;;;;;;8.63;6.63;;;;;;;8.45;62.63;101565.44;5108260;28;20208;-76
2021/04/24 10:11:40;;;;;;;7.53;6.73;;;;;;;8.52;61.68;101559.44;5108642;28;20208;-77
2021/04/24 10:14:07;;;;;;;6.53;6.03;;;;;;;8.38;61.80;101565.34;5107784;28;20222;-73
2021/04/24 10:16:34;;;;;;;8.57;6.13;;;;;;;8.45;60.34;101561.97;5107458;28;20228;-73
2021/04/24 10:19:02;;;;;;;8.97;7.37;;;;;;;8.22;60.79;101562.59;5108216;28;20225;-74
2021/04/24 10:21:29;;;;;;;7.57;5.67;;;;;;;8.38;59.07;101568.81;5107903;28;20301;-75
2021/04/24 10:23:55;;;;;;;5.57;4.80;;;;;;;8.18;56.62;101557.38;5107689;28;20204;-73
2021/04/24 10:26:22;;;;;;;5.20;4.73;;;;;;;8.26;58.22;101564.38;5107434;28;21315;-75
2021/04/24 10:28:48;;;;;;;4.80;4.10;;;;;;;8.32;55.98;101559.25;5108407;28;20249;-74
2021/04/24 10:31:14;;;;;;;7.23;4.87;;;;;;;8.47;55.19;101548.09;5107513;28;20208;-75
2021/04/24 10:33:41;;;;;;;6.97;5.43;;;;;;;8.93;56.06;101552.75;5108243;28;20200;-76
2021/04/24 10:36:07;;;;;;;4.87;4.33;;;;;;;9.27;55.20;101545.09;5108333;28;20277;-75
2021/04/24 10:38:34;;;;;;;6.53;5.10;;;;;;;9.21;54.33;101543.34;5107935;28;20708;-74
2021/04/24 10:41:00;;;;;;;5.90;4.67;;;;;;;9.36;53.30;101545.16;5106715;28;20203;-76
2021/04/24 10:43:27;;;;;;;6.73;6.07;;;;;;;9.41;53.00;101534.72;5107902;28;20334;-75
2021/04/24 10:45:53;;;;;;;7.60;6.80;;;;;;;9.31;53.71;101539.91;5107552;28;20223;-74
2021/04/24 10:48:23;;;;;;;6.70;6.10;;;;;;;9.38;54.23;101537.34;5108423;28;20206;-75
2021/04/24 10:50:50;;;;;;;6.13;5.53;;;;;;;9.56;54.07;101526.97;5107754;28;20240;-75
2021/04/24 10:53:21;;;;;;;5.97;5.37;;;;;;;9.71;52.93;101526.13;5111709;28;20240;-75
2021/04/24 10:55:48;;;;;;;8.77;4.07;;;;;;;9.77;52.21;101523.53;5111228;27;20295;-75
2021/04/24 10:58:15;;;;;;;4.87;4.37;;;;;;;9.70;49.88;101511.34;5112070;28;20224;-75
2021/04/24 11:00:53;;;;;;;6.23;4.83;;;;;;;9.73;52.03;101519.16;5112617;27;20226;-75
2021/04/24 11:03:46;;;;;;;6.47;4.20;;;;;;;10.06;51.76;101518.34;5111778;28;20681;-76
2021/04/24 11:06:14;;;;;;;4.23;3.80;;;;;;;9.59;53.78;101515.66;5111736;28;20225;-74
2021/04/24 11:08:41;;;;;;;5.83;4.90;;;;;;;9.56;53.76;101521.75;5112131;28;20563;-76
2021/04/24 11:11:09;;;;;;;6.47;4.70;;;;;;;9.48;53.37;101523.47;5111941;27;20205;-75
2021/04/24 11:13:38;;;;;;;5.23;4.73;;;;;;;9.33;54.23;101514.72;5111728;28;20232;-75
2021/04/24 11:16:08;;;;;;;6.83;4.70;;;;;;;9.08;54.22;101521.59;5112017;27;20218;-74
2021/04/24 11:18:35;;;;;;;5.83;5.07;;;;;;;9.40;53.47;101515.63;5111824;28;20229;-75
2021/04/24 11:21:03;;;;;;;5.70;5.07;;;;;;;9.98;53.60;101517.47;5111195;28;20861;-75
2021/04/24 11:23:39;;;;;;;7.80;4.53;;;;;;;9.97;48.92;101512.25;5112000;28;20206;-76
2021/04/24 11:26:07;;;;;;;5.47;4.47;;;;;;;10.45;50.74;101516.66;5111120;28;20225;-75
2021/04/24 11:28:34;;;;;;;5.90;4.40;;;;;;;11.27;48.91;101508.56;5111875;28;20570;-75
2021/04/24 11:31:04;;;;;;;8.40;4.53;;;;;;;12.12;47.17;101504.56;5110564;28;20342;-75
2021/04/24 11:33:37;;;;;;;4.60;4.20;;;;;;;11.16;45.69;101497.28;5111545;28;20742;-75